createdAt,value
2023-05-11T00:00:47.328Z,6.15
2023-05-11T00:01:50.802Z,9.10
2023-05-11T00:02:53.865Z,7.95
2023-05-11T00:03:57.964Z,7.25
2023-05-11T00:05:00.397Z,12.27
2023-05-11T00:06:03.808Z,6.55
2023-05-11T00:07:06.324Z,7.60
2023-05-11T00:08:09.986Z,6.78
2023-05-11T00:09:12.574Z,6.07
2023-05-11T00:10:16.294Z,10.48
2023-05-11T00:11:18.956Z,6.75
2023-05-11T00:12:22.251Z,8.03
2023-05-11T00:13:25.908Z,8.73
2023-05-11T00:14:32.843Z,4.55
2023-05-11T00:15:35.070Z,9.43
2023-05-11T00:16:38.378Z,10.18
2023-05-11T00:17:40.550Z,6.30
2023-05-11T00:18:46.517Z,7.53
2023-05-11T00:19:48.729Z,10.98
2023-05-11T00:20:57.181Z,5.88
2023-05-11T00:21:59.741Z,5.82
2023-05-11T00:23:03.043Z,9.00
2023-05-11T00:24:06.056Z,4.75
2023-05-11T00:25:10.167Z,10.63
2023-05-11T00:26:12.717Z,8.70
2023-05-11T00:27:19.751Z,7.38
2023-05-11T00:28:23.008Z,4.00
2023-05-11T00:29:26.753Z,8.23
2023-05-11T00:30:30.368Z,8.00
2023-05-11T00:31:35.572Z,8.13
2023-05-11T00:32:37.789Z,8.32
2023-05-11T00:33:41.157Z,8.27
2023-05-11T00:34:43.355Z,9.25
2023-05-11T00:35:49.248Z,10.20
2023-05-11T00:36:51.432Z,6.63
2023-05-11T00:37:54.985Z,8.20
2023-05-11T00:39:04.267Z,7.80
2023-05-11T00:40:08.700Z,6.32
2023-05-11T00:41:11.092Z,9.98
2023-05-11T00:42:14.301Z,9.15
2023-05-11T00:43:17.090Z,9.90
2023-05-11T00:44:20.493Z,8.13
2023-05-11T00:45:22.692Z,8.30
2023-05-11T00:46:28.845Z,7.88
2023-05-11T00:47:31.170Z,12.13
2023-05-11T00:48:36.107Z,9.65
2023-05-11T00:49:39.055Z,7.68
2023-05-11T00:50:42.370Z,4.85
2023-05-11T00:51:44.947Z,6.30
2023-05-11T00:52:49.280Z,9.57
2023-05-11T00:53:52.309Z,7.13
2023-05-11T00:54:56.956Z,5.80
2023-05-11T00:55:59.425Z,8.18
2023-05-11T00:57:02.846Z,11.45
2023-05-11T00:58:05.723Z,9.00
2023-05-11T00:59:11.627Z,8.82
2023-05-11T01:00:14.520Z,12.00
2023-05-11T01:01:18.988Z,9.40
2023-05-11T01:02:23.147Z,10.65
2023-05-11T01:03:26.728Z,7.28
2023-05-11T01:04:30.978Z,6.65
2023-05-11T01:05:41.380Z,4.83
2023-05-11T01:06:51.947Z,6.95
2023-05-11T01:08:01.234Z,4.97
2023-05-11T01:09:06.809Z,11.50
2023-05-11T01:10:20.178Z,5.82
2023-05-11T01:11:30.619Z,8.52
2023-05-11T01:12:40.653Z,8.48
2023-05-11T01:13:49.853Z,11.73
2023-05-11T01:15:01.033Z,8.95
2023-05-11T01:16:11.198Z,9.20
2023-05-11T01:17:20.789Z,7.47
2023-05-11T01:18:29.603Z,6.25
2023-05-11T01:19:41.689Z,7.93
2023-05-11T01:20:47.974Z,9.02
2023-05-11T01:21:51.291Z,8.98
2023-05-11T01:23:12.126Z,6.40
2023-05-11T01:24:31.793Z,10.20
2023-05-11T01:25:54.587Z,6.00
2023-05-11T01:27:32.208Z,7.78
2023-05-11T01:29:03.616Z,9.13
2023-05-11T01:30:28.701Z,7.00
2023-05-11T01:31:32.451Z,6.55
2023-05-11T01:32:43.878Z,10.70
2023-05-11T01:33:51.875Z,7.50
2023-05-11T01:35:06.769Z,11.10
2023-05-11T01:36:11.317Z,7.82
2023-05-11T01:37:19.888Z,6.03
2023-05-11T01:38:24.911Z,8.27
2023-05-11T01:39:33.992Z,10.60
2023-05-11T01:40:37.543Z,7.63
2023-05-11T01:41:43.707Z,11.90
2023-05-11T01:42:51.802Z,9.65
2023-05-11T01:43:58.407Z,5.80
2023-05-11T01:45:02.247Z,5.40
2023-05-11T01:46:09.897Z,8.10
2023-05-11T01:47:13.449Z,9.27
2023-05-11T01:48:20.480Z,10.55
2023-05-11T01:49:22.576Z,9.77
2023-05-11T01:50:27.612Z,9.18
2023-05-11T01:51:34.902Z,6.53
2023-05-11T01:52:40.275Z,8.87
2023-05-11T01:53:44.394Z,9.07
2023-05-11T01:54:49.891Z,7.82
2023-05-11T01:55:54.670Z,6.40
2023-05-11T01:56:59.616Z,8.90
2023-05-11T01:58:04.106Z,9.95
2023-05-11T01:59:08.777Z,5.57
2023-05-11T02:00:13.165Z,9.15
2023-05-11T02:01:19.644Z,8.70
2023-05-11T02:02:25.316Z,7.75
2023-05-11T02:03:31.302Z,8.93
2023-05-11T02:04:35.735Z,7.53
2023-05-11T02:05:41.665Z,8.48
2023-05-11T02:06:45.032Z,10.30
2023-05-11T02:07:50.958Z,8.15
2023-05-11T02:08:54.003Z,7.78
2023-05-11T02:09:59.228Z,7.57
2023-05-11T02:11:03.538Z,5.65
2023-05-11T02:12:08.920Z,8.27
2023-05-11T02:13:11.651Z,6.72
2023-05-11T02:14:18.812Z,5.77
2023-05-11T02:15:22.309Z,10.52
2023-05-11T02:16:29.592Z,8.35
2023-05-11T02:17:34.471Z,5.88
2023-05-11T02:18:41.967Z,7.30
2023-05-11T02:19:45.292Z,5.53
2023-05-11T02:20:49.693Z,8.55
2023-05-11T02:21:54.472Z,6.25
2023-05-11T02:23:06.776Z,7.25
2023-05-11T02:24:09.581Z,7.43
2023-05-11T02:25:13.934Z,5.20
2023-05-11T02:26:16.942Z,9.90
2023-05-11T02:27:20.158Z,7.90
2023-05-11T02:28:22.636Z,9.18
2023-05-11T02:29:26.208Z,9.82
2023-05-11T02:30:32.061Z,10.98
2023-05-11T02:31:44.057Z,10.10
2023-05-11T02:32:51.644Z,7.40
2023-05-11T02:33:58.057Z,6.25
2023-05-11T02:35:06.661Z,8.60
2023-05-11T02:36:11.108Z,8.83
2023-05-11T02:37:18.163Z,8.18
2023-05-11T02:38:22.453Z,9.02
2023-05-11T02:39:31.006Z,8.98
2023-05-11T02:40:40.835Z,5.03
2023-05-11T02:41:46.535Z,10.40
2023-05-11T02:42:54.380Z,6.90
2023-05-11T02:44:01.549Z,8.20
2023-05-11T02:45:08.770Z,11.07
2023-05-11T02:46:14.969Z,8.65
2023-05-11T02:47:21.829Z,5.57
2023-05-11T02:48:29.268Z,8.70
2023-05-11T02:49:36.428Z,5.85
2023-05-11T02:50:41.264Z,10.00
2023-05-11T02:51:46.317Z,14.23
2023-05-11T02:52:51.425Z,5.70
2023-05-11T02:53:58.441Z,8.57
2023-05-11T02:55:09.831Z,8.75
2023-05-11T02:56:14.098Z,13.57
2023-05-11T02:57:16.497Z,6.78
2023-05-11T02:58:20.574Z,11.57
2023-05-11T02:59:23.386Z,10.95
2023-05-11T03:00:26.867Z,10.10
2023-05-11T03:01:30.739Z,7.65
2023-05-11T03:02:35.917Z,7.70
2023-05-11T03:03:38.669Z,6.60
2023-05-11T03:04:43.356Z,14.40
2023-05-11T03:05:45.727Z,8.15
2023-05-11T03:06:51.419Z,11.18
2023-05-11T03:07:58.690Z,12.75
2023-05-11T03:09:02.736Z,14.93
2023-05-11T03:10:06.159Z,14.02
2023-05-11T03:11:11.055Z,9.10
2023-05-11T03:12:15.045Z,10.90
2023-05-11T03:13:20.443Z,11.85
2023-05-11T03:14:22.794Z,8.15
2023-05-11T03:15:26.641Z,10.70
2023-05-11T03:16:30.102Z,11.05
2023-05-11T03:17:33.601Z,11.90
2023-05-11T03:18:37.491Z,8.55
2023-05-11T03:19:42.471Z,9.83
2023-05-11T03:20:46.592Z,8.95
2023-05-11T03:21:52.344Z,12.25
2023-05-11T03:22:55.702Z,9.20
2023-05-11T03:24:01.503Z,8.95
2023-05-11T03:25:05.258Z,7.90
2023-05-11T03:26:09.797Z,8.48
2023-05-11T03:27:12.911Z,8.55
2023-05-11T03:28:17.721Z,6.03
2023-05-11T03:29:20.668Z,10.80
2023-05-11T03:30:24.622Z,8.10
2023-05-11T03:31:26.913Z,10.23
2023-05-11T03:32:31.585Z,8.82
2023-05-11T03:33:33.789Z,7.10
2023-05-11T03:34:39.751Z,9.40
2023-05-11T03:35:44.417Z,10.73
2023-05-11T03:36:50.289Z,9.10
2023-05-11T03:37:55.129Z,8.13
2023-05-11T03:38:59.638Z,8.07
2023-05-11T03:40:04.481Z,6.97
2023-05-11T03:41:08.859Z,7.10
2023-05-11T03:42:14.163Z,9.48
2023-05-11T03:43:20.736Z,8.85
2023-05-11T03:44:26.277Z,6.45
2023-05-11T03:45:31.551Z,7.72
2023-05-11T03:46:38.506Z,5.55
2023-05-11T03:47:44.190Z,7.00
2023-05-11T03:48:48.250Z,6.40
2023-05-11T03:49:54.629Z,8.07
2023-05-11T03:50:56.878Z,9.07
2023-05-11T03:52:00.640Z,10.37
2023-05-11T03:53:05.703Z,11.95
2023-05-11T03:54:09.060Z,14.00
2023-05-11T03:55:11.992Z,9.85
2023-05-11T03:56:15.540Z,11.10
2023-05-11T03:57:17.752Z,10.60
2023-05-11T03:58:23.180Z,8.65
2023-05-11T03:59:26.440Z,5.75
2023-05-11T04:00:30.818Z,10.07
2023-05-11T04:01:33.367Z,9.68
2023-05-11T04:02:36.963Z,7.10
2023-05-11T04:03:49.622Z,7.32
2023-05-11T04:04:54.444Z,6.35
2023-05-11T04:05:56.772Z,7.00
2023-05-11T04:07:00.715Z,8.85
2023-05-11T04:08:04.305Z,6.55
2023-05-11T04:09:07.533Z,7.38
2023-05-11T04:10:10.062Z,7.03
2023-05-11T04:11:13.424Z,5.60
2023-05-11T04:12:15.879Z,6.97
2023-05-11T04:13:19.396Z,7.60
2023-05-11T04:14:21.899Z,10.90
2023-05-11T04:15:25.248Z,5.00
2023-05-11T04:16:27.450Z,5.50
2023-05-11T04:17:30.707Z,5.63
2023-05-11T04:18:33.184Z,6.45
2023-05-11T04:19:36.526Z,6.47
2023-05-11T04:20:40.149Z,6.53
2023-05-11T04:21:44.167Z,8.57
2023-05-11T04:22:46.434Z,6.63
2023-05-11T04:23:49.889Z,5.57
2023-05-11T04:24:52.090Z,9.20
2023-05-11T04:25:56.186Z,7.78
2023-05-11T04:26:58.559Z,6.10
2023-05-11T04:28:02.492Z,7.43
2023-05-11T04:29:06.018Z,6.80
2023-05-11T04:30:10.465Z,5.65
2023-05-11T04:31:14.137Z,8.18
2023-05-11T04:32:17.856Z,9.43
2023-05-11T04:33:22.439Z,4.88
2023-05-11T04:34:26.283Z,6.87
2023-05-11T04:35:28.613Z,10.15
2023-05-11T04:36:33.174Z,5.65
2023-05-11T04:37:35.389Z,6.90
2023-05-11T04:38:38.975Z,8.30
2023-05-11T04:39:41.131Z,8.43
2023-05-11T04:40:44.501Z,9.05
2023-05-11T04:41:47.737Z,7.43
2023-05-11T04:42:50.187Z,5.70
2023-05-11T04:43:54.095Z,6.38
2023-05-11T04:44:56.285Z,7.03
2023-05-11T04:46:00.388Z,8.25
2023-05-11T04:47:02.816Z,7.75
2023-05-11T04:48:07.149Z,9.95
2023-05-11T04:49:09.940Z,6.20
2023-05-11T04:50:13.335Z,10.52
2023-05-11T04:51:16.104Z,5.53
2023-05-11T04:52:20.784Z,12.07
2023-05-11T04:53:24.197Z,9.77
2023-05-11T04:54:27.446Z,8.88
2023-05-11T04:55:29.643Z,6.43
2023-05-11T04:56:33.119Z,4.15
2023-05-11T04:57:35.235Z,4.05
2023-05-11T04:58:38.378Z,7.78
2023-05-11T04:59:40.610Z,5.97
2023-05-11T05:00:43.884Z,5.82
2023-05-11T05:01:46.254Z,3.35
2023-05-11T05:02:50.924Z,4.95
2023-05-11T05:03:53.310Z,5.05
2023-05-11T05:04:56.524Z,6.38
2023-05-11T05:06:01.189Z,5.00
2023-05-11T05:07:04.763Z,4.60
2023-05-11T05:08:08.430Z,6.10
2023-05-11T05:09:12.151Z,6.40
2023-05-11T05:10:14.633Z,7.50
2023-05-11T05:11:17.970Z,4.55
2023-05-11T05:12:20.350Z,5.38
2023-05-11T05:13:23.739Z,6.20
2023-05-11T05:14:25.894Z,3.90
2023-05-11T05:15:29.101Z,5.28
2023-05-11T05:16:32.579Z,3.43
2023-05-11T05:17:36.265Z,6.65
2023-05-11T05:18:38.508Z,5.15
2023-05-11T05:19:41.770Z,5.55
2023-05-11T05:20:43.908Z,2.90
2023-05-11T05:21:48.369Z,4.30
2023-05-11T05:22:50.699Z,4.70
2023-05-11T05:23:55.702Z,5.68
2023-05-11T05:24:59.945Z,3.50
2023-05-11T05:26:03.419Z,4.00
2023-05-11T05:27:05.701Z,3.40
2023-05-11T05:28:09.144Z,6.85
2023-05-11T05:29:11.276Z,3.42
2023-05-11T05:30:15.202Z,5.95
2023-05-11T05:31:18.066Z,3.97
2023-05-11T05:32:21.302Z,5.00
2023-05-11T05:33:26.450Z,4.88
2023-05-11T05:34:35.748Z,4.93
2023-05-11T05:35:39.088Z,2.75
2023-05-11T05:36:42.707Z,6.50
2023-05-11T05:37:46.520Z,6.70
2023-05-11T05:38:49.760Z,5.70
2023-05-11T05:39:56.634Z,3.78
2023-05-11T05:40:59.886Z,6.20
2023-05-11T05:42:03.153Z,3.63
2023-05-11T05:43:06.329Z,2.67
2023-05-11T05:44:08.904Z,5.47
2023-05-11T05:45:14.768Z,3.42
2023-05-11T05:46:18.549Z,3.75
2023-05-11T05:47:20.792Z,4.05
2023-05-11T05:48:24.019Z,5.03
2023-05-11T05:49:26.377Z,5.97
2023-05-11T05:50:30.523Z,4.70
2023-05-11T05:51:32.905Z,2.90
2023-05-11T05:52:37.252Z,2.83
2023-05-11T05:53:39.720Z,3.25
2023-05-11T05:54:42.856Z,3.58
2023-05-11T05:55:46.409Z,3.25
2023-05-11T05:56:50.572Z,3.53
2023-05-11T05:57:52.688Z,3.15
2023-05-11T05:58:56.616Z,4.83
2023-05-11T05:59:58.919Z,4.32
2023-05-11T06:01:02.199Z,2.35
2023-05-11T06:02:04.455Z,3.90
2023-05-11T06:03:07.676Z,4.13
2023-05-11T06:04:10.317Z,4.78
2023-05-11T06:05:13.600Z,4.13
2023-05-11T06:06:16.865Z,3.53
2023-05-11T06:07:20.049Z,3.33
2023-05-11T06:08:22.417Z,5.07
2023-05-11T06:09:25.630Z,3.83
2023-05-11T06:10:28.358Z,2.92
2023-05-11T06:11:33.596Z,6.32
2023-05-11T06:12:35.882Z,4.50
2023-05-11T06:13:43.593Z,2.47
2023-05-11T06:14:46.439Z,2.85
2023-05-11T06:15:49.650Z,3.25
2023-05-11T06:16:51.867Z,3.45
2023-05-11T06:17:55.082Z,3.83
2023-05-11T06:18:57.737Z,4.68
2023-05-11T06:20:01.185Z,4.00
2023-05-11T06:21:03.708Z,5.80
2023-05-11T06:22:07.042Z,4.40
2023-05-11T06:23:09.361Z,3.83
2023-05-11T06:24:13.209Z,3.40
2023-05-11T06:25:16.117Z,7.43
2023-05-11T06:26:19.855Z,3.33
2023-05-11T06:27:23.350Z,3.47
2023-05-11T06:28:26.507Z,3.78
2023-05-11T06:29:28.861Z,5.78
2023-05-11T06:30:31.990Z,4.73
2023-05-11T06:31:34.388Z,3.97
2023-05-11T06:32:37.621Z,3.90
2023-05-11T06:33:39.775Z,6.18
2023-05-11T06:34:43.017Z,3.33
2023-05-11T06:35:45.224Z,2.88
2023-05-11T06:36:48.897Z,4.07
2023-05-11T06:37:53.253Z,3.78
2023-05-11T06:38:57.627Z,4.63
2023-05-11T06:39:59.987Z,2.70
2023-05-11T06:41:04.138Z,3.37
2023-05-11T06:42:08.192Z,4.25
2023-05-11T06:43:11.934Z,5.47
2023-05-11T06:44:15.272Z,3.35
2023-05-11T06:45:17.894Z,3.17
2023-05-11T06:46:22.354Z,4.47
2023-05-11T06:47:26.749Z,3.10
2023-05-11T06:48:30.670Z,4.35
2023-05-11T06:49:33.066Z,6.20
2023-05-11T06:50:36.646Z,2.38
2023-05-11T06:51:39.864Z,3.93
2023-05-11T06:52:42.463Z,4.60
2023-05-11T06:53:45.959Z,3.40
2023-05-11T06:54:48.172Z,4.35
2023-05-11T06:55:52.726Z,3.08
2023-05-11T06:56:54.862Z,1.98
2023-05-11T06:57:58.049Z,4.45
2023-05-11T06:59:01.731Z,2.45
2023-05-11T07:00:05.568Z,4.68
2023-05-11T07:01:08.101Z,3.28
2023-05-11T07:02:13.781Z,2.47
2023-05-11T07:03:16.454Z,4.80
2023-05-11T07:04:19.741Z,2.80
2023-05-11T07:05:22.133Z,5.38
2023-05-11T07:06:25.352Z,3.53
2023-05-11T07:07:27.698Z,3.97
2023-05-11T07:08:30.893Z,4.72
2023-05-11T07:09:34.022Z,3.47
2023-05-11T07:10:37.547Z,3.65
2023-05-11T07:11:39.884Z,5.35
2023-05-11T07:12:43.120Z,6.30
2023-05-11T07:13:45.537Z,5.25
2023-05-11T07:14:52.408Z,6.53
2023-05-11T07:15:57.319Z,2.85
2023-05-11T07:17:01.250Z,3.83
2023-05-11T07:18:03.919Z,3.10
2023-05-11T07:19:08.444Z,3.90
2023-05-11T07:20:12.299Z,3.40
2023-05-11T07:21:15.979Z,4.63
2023-05-11T07:22:18.159Z,4.07
2023-05-11T07:23:21.353Z,5.27
2023-05-11T07:24:24.710Z,4.47
2023-05-11T07:25:26.855Z,5.03
2023-05-11T07:26:30.284Z,3.08
2023-05-11T07:27:32.950Z,5.22
2023-05-11T07:28:36.577Z,2.97
2023-05-11T07:29:38.753Z,3.60
2023-05-11T07:30:43.779Z,2.33
2023-05-11T07:31:48.344Z,4.35
2023-05-11T07:32:50.672Z,3.97
2023-05-11T07:33:54.515Z,4.63
2023-05-11T07:34:57.798Z,4.38
2023-05-11T07:36:01.038Z,4.57
2023-05-11T07:37:04.680Z,3.67
2023-05-11T07:38:09.712Z,5.88
2023-05-11T07:39:11.855Z,3.08
2023-05-11T07:40:18.993Z,3.58
2023-05-11T07:41:23.172Z,4.32
2023-05-11T07:42:26.412Z,7.10
2023-05-11T07:43:29.764Z,3.88
2023-05-11T07:44:31.993Z,4.50
2023-05-11T07:45:35.717Z,4.93
2023-05-11T07:46:39.319Z,4.57
2023-05-11T07:47:42.765Z,5.13
2023-05-11T07:48:45.990Z,3.88
2023-05-11T07:49:50.284Z,5.50
2023-05-11T07:51:00.348Z,7.53
2023-05-11T07:52:03.700Z,4.75
2023-05-11T07:53:07.382Z,5.03
2023-05-11T07:54:09.751Z,2.80
2023-05-11T07:55:12.970Z,4.63
2023-05-11T07:56:15.130Z,4.32
2023-05-11T07:57:18.757Z,3.00
2023-05-11T07:58:22.034Z,4.88
2023-05-11T07:59:24.311Z,6.05
2023-05-11T08:00:27.910Z,3.63
2023-05-11T08:01:30.144Z,3.92
2023-05-11T08:02:34.947Z,4.28
2023-05-11T08:03:37.395Z,6.15
2023-05-11T08:04:40.799Z,3.20
2023-05-11T08:05:43.193Z,4.47
2023-05-11T08:06:46.448Z,4.53
2023-05-11T08:07:48.698Z,6.43
2023-05-11T08:08:52.450Z,4.43
2023-05-11T08:09:55.596Z,4.70
2023-05-11T08:10:58.038Z,3.05
2023-05-11T08:12:02.514Z,3.33
2023-05-11T08:13:04.657Z,5.10
2023-05-11T08:14:07.874Z,2.45
2023-05-11T08:15:11.007Z,5.00
2023-05-11T08:16:15.124Z,2.53
2023-05-11T08:17:17.271Z,5.53
2023-05-11T08:18:22.648Z,6.28
2023-05-11T08:19:24.991Z,7.80
2023-05-11T08:20:29.522Z,5.63
2023-05-11T08:21:32.944Z,3.70
2023-05-11T08:22:36.200Z,5.38
2023-05-11T08:23:39.046Z,4.00
2023-05-11T08:24:42.586Z,5.07
2023-05-11T08:25:53.023Z,3.40
2023-05-11T08:26:55.306Z,9.07
2023-05-11T08:27:58.653Z,4.25
2023-05-11T08:29:00.926Z,1.83
2023-05-11T08:30:11.324Z,5.70
2023-05-11T08:31:15.161Z,4.75
2023-05-11T08:32:17.352Z,5.07
2023-05-11T08:33:36.522Z,6.13
2023-05-11T08:34:42.862Z,2.92
2023-05-11T08:35:53.807Z,5.68
2023-05-11T08:36:57.029Z,4.82
2023-05-11T08:37:59.276Z,3.43
2023-05-11T08:39:02.487Z,5.55
2023-05-11T08:40:05.535Z,3.72
2023-05-11T08:41:08.886Z,3.20
2023-05-11T08:42:14.387Z,3.05
2023-05-11T08:43:20.485Z,5.20
2023-05-11T08:44:24.714Z,4.30
2023-05-11T08:45:28.552Z,4.80
2023-05-11T08:46:37.467Z,2.90
2023-05-11T08:47:40.205Z,3.38
2023-05-11T08:48:43.566Z,5.40
2023-05-11T08:49:47.635Z,4.20
2023-05-11T08:50:51.125Z,2.50
2023-05-11T08:51:53.727Z,2.65
2023-05-11T08:52:56.966Z,4.80
2023-05-11T08:54:00.389Z,5.22
2023-05-11T08:55:05.413Z,2.72
2023-05-11T08:56:09.744Z,3.70
2023-05-11T08:57:15.362Z,5.97
2023-05-11T08:58:22.390Z,4.22
2023-05-11T08:59:28.586Z,3.60
2023-05-11T09:00:31.509Z,3.85
2023-05-11T09:01:38.989Z,5.78
2023-05-11T09:02:50.036Z,3.42
2023-05-11T09:03:54.456Z,4.88
2023-05-11T09:04:59.488Z,3.13
2023-05-11T09:06:07.241Z,3.90
2023-05-11T09:07:11.509Z,5.38
2023-05-11T09:08:19.884Z,3.80
2023-05-11T09:09:25.686Z,5.78
2023-05-11T09:10:29.086Z,5.87
2023-05-11T09:11:31.567Z,7.32
2023-05-11T09:12:34.988Z,2.55
2023-05-11T09:13:37.591Z,5.35
2023-05-11T09:14:41.193Z,3.85
2023-05-11T09:15:44.455Z,6.57
2023-05-11T09:16:47.778Z,3.03
2023-05-11T09:17:50.192Z,3.10
2023-05-11T09:18:55.098Z,3.63
2023-05-11T09:20:00.110Z,3.17
2023-05-11T09:21:03.489Z,6.03
2023-05-11T09:22:06.887Z,5.05
2023-05-11T09:23:11.128Z,4.18
2023-05-11T09:24:13.767Z,4.18
2023-05-11T09:25:18.315Z,1.90
2023-05-11T09:26:24.485Z,4.28
2023-05-11T09:27:26.826Z,5.35
2023-05-11T09:28:35.967Z,3.28
2023-05-11T09:29:38.587Z,4.47
2023-05-11T09:30:41.934Z,3.35
2023-05-11T09:31:45.805Z,4.40
2023-05-11T09:32:53.486Z,3.83
2023-05-11T09:34:09.388Z,5.28
2023-05-11T09:35:22.728Z,4.30
2023-05-11T09:36:24.956Z,3.42
2023-05-11T09:37:28.203Z,5.13
2023-05-11T09:38:30.403Z,3.67
2023-05-11T09:39:42.097Z,4.55
2023-05-11T09:40:55.411Z,2.83
2023-05-11T09:42:16.994Z,2.70
2023-05-11T09:43:22.496Z,3.13
2023-05-11T09:44:32.020Z,2.25
2023-05-11T09:45:43.024Z,5.45
2023-05-11T09:46:47.771Z,4.07
2023-05-11T09:47:50.065Z,2.88
2023-05-11T09:49:01.285Z,2.42
2023-05-11T09:50:18.300Z,3.90
2023-05-11T09:51:31.258Z,4.03
2023-05-11T09:52:34.384Z,2.72
2023-05-11T09:53:39.103Z,2.65
2023-05-11T09:54:46.475Z,2.87
2023-05-11T09:55:52.178Z,1.60
2023-05-11T09:56:58.331Z,5.30
2023-05-11T09:58:00.709Z,3.53
2023-05-11T09:59:04.194Z,3.65
2023-05-11T10:00:15.825Z,5.15
2023-05-11T10:01:20.385Z,1.77
2023-05-11T10:02:25.266Z,4.32
2023-05-11T10:03:28.400Z,3.00
2023-05-11T10:04:31.898Z,2.00
2023-05-11T10:05:37.748Z,4.70
2023-05-11T10:06:48.590Z,2.25
2023-05-11T10:07:59.316Z,2.38
2023-05-11T10:09:10.083Z,4.38
2023-05-11T10:10:15.301Z,3.50
2023-05-11T10:11:17.826Z,4.75
2023-05-11T10:12:23.422Z,3.35
2023-05-11T10:13:27.615Z,3.45
2023-05-11T10:14:32.445Z,4.25
2023-05-11T10:15:36.768Z,3.78
2023-05-11T10:16:40.555Z,2.40
2023-05-11T10:17:45.538Z,3.28
2023-05-11T10:18:50.877Z,5.35
2023-05-11T10:19:56.368Z,6.15
2023-05-11T10:20:59.142Z,2.95
2023-05-11T10:22:05.704Z,3.90
2023-05-11T10:23:08.983Z,2.97
2023-05-11T10:24:13.907Z,2.03
2023-05-11T10:25:16.930Z,4.82
2023-05-11T10:26:20.712Z,6.15
2023-05-11T10:27:23.668Z,4.83
2023-05-11T10:28:26.941Z,2.85
2023-05-11T10:29:30.528Z,2.95
2023-05-11T10:30:35.771Z,5.45
2023-05-11T10:31:42.077Z,3.03
2023-05-11T10:32:47.194Z,3.25
2023-05-11T10:33:51.608Z,4.28
2023-05-11T10:34:55.233Z,4.47
2023-05-11T10:35:57.922Z,3.22
2023-05-11T10:37:04.077Z,3.85
2023-05-11T10:38:08.866Z,2.30
2023-05-11T10:39:11.326Z,2.80
2023-05-11T10:40:15.901Z,4.50
2023-05-11T10:41:36.415Z,4.35
2023-05-11T10:43:21.101Z,3.85
2023-05-11T10:44:56.138Z,3.25
2023-05-11T10:46:09.577Z,4.82
2023-05-11T10:47:28.143Z,4.32
2023-05-11T10:49:06.099Z,5.20
2023-05-11T10:50:27.197Z,5.63
2023-05-11T10:51:53.000Z,3.73
2023-05-11T10:53:13.654Z,2.75
2023-05-11T10:54:30.870Z,5.28
2023-05-11T10:55:57.791Z,2.75
2023-05-11T10:57:11.361Z,7.18
2023-05-11T10:58:20.343Z,5.90
2023-05-11T10:59:45.408Z,3.97
2023-05-11T11:01:30.079Z,3.47
2023-05-11T11:02:32.506Z,3.00
2023-05-11T11:03:37.578Z,4.55
2023-05-11T11:04:45.456Z,3.77
2023-05-11T11:05:48.971Z,3.08
2023-05-11T11:07:05.578Z,5.72
2023-05-11T11:08:12.862Z,4.13
2023-05-11T11:09:16.458Z,4.20
2023-05-11T11:10:31.852Z,3.42
2023-05-11T11:11:36.086Z,4.20
2023-05-11T11:12:39.391Z,6.22
2023-05-11T11:14:01.637Z,4.07
2023-05-11T11:15:06.596Z,3.90
2023-05-11T11:16:09.850Z,5.63
2023-05-11T11:17:27.382Z,3.60
2023-05-11T11:18:31.400Z,5.10
2023-05-11T11:19:39.730Z,2.65
2023-05-11T11:20:52.993Z,6.00
2023-05-11T11:22:00.174Z,5.72
2023-05-11T11:23:03.580Z,6.00
2023-05-11T11:24:08.391Z,4.30
2023-05-11T11:25:13.505Z,5.50
2023-05-11T11:26:19.091Z,3.08
2023-05-11T11:27:59.230Z,7.33
2023-05-11T11:29:12.219Z,4.45
2023-05-11T11:30:22.608Z,2.40
2023-05-11T11:31:26.059Z,2.53
2023-05-11T11:32:29.842Z,3.67
2023-05-11T11:33:36.428Z,3.30
2023-05-11T11:34:42.988Z,3.17
2023-05-11T11:35:46.125Z,6.90
2023-05-11T11:37:03.891Z,5.43
2023-05-11T11:38:08.874Z,3.40
2023-05-11T11:39:16.715Z,3.70
2023-05-11T11:40:50.655Z,4.45
2023-05-11T11:42:02.714Z,4.25
2023-05-11T11:43:12.675Z,4.50
2023-05-11T11:44:22.053Z,5.35
2023-05-11T11:45:31.105Z,2.65
2023-05-11T11:46:35.164Z,2.97
2023-05-11T11:47:40.253Z,6.45
2023-05-11T11:48:43.869Z,4.25
2023-05-11T11:49:47.341Z,5.57
2023-05-11T11:51:02.592Z,1.80
2023-05-11T11:52:07.774Z,5.18
2023-05-11T11:53:35.049Z,2.72
2023-05-11T11:54:40.920Z,4.45
2023-05-11T11:55:48.104Z,4.57
2023-05-11T11:56:51.659Z,3.45
2023-05-11T11:57:54.390Z,2.95
2023-05-11T11:59:01.595Z,3.42
2023-05-11T12:00:07.486Z,9.15
2023-05-11T12:01:10.532Z,3.00
2023-05-11T12:02:17.316Z,2.83
2023-05-11T12:03:23.888Z,4.28
2023-05-11T12:04:53.600Z,3.25
2023-05-11T12:06:02.852Z,1.27
2023-05-11T12:07:09.433Z,4.55
2023-05-11T12:08:16.865Z,3.53
2023-05-11T12:09:19.396Z,2.13
2023-05-11T12:10:25.104Z,2.80
2023-05-11T12:11:38.995Z,2.75
2023-05-11T12:12:46.168Z,5.32
2023-05-11T12:13:49.329Z,3.77
2023-05-11T12:14:52.610Z,3.47
2023-05-11T12:16:08.833Z,4.50
2023-05-11T12:17:16.073Z,2.97
2023-05-11T12:18:23.145Z,3.80
2023-05-11T12:19:25.624Z,2.75
2023-05-11T12:20:29.026Z,3.92
2023-05-11T12:21:32.640Z,3.75
2023-05-11T12:22:37.863Z,4.07
2023-05-11T12:23:40.020Z,2.20
2023-05-11T12:24:44.550Z,2.70
2023-05-11T12:26:02.000Z,2.33
2023-05-11T12:27:05.269Z,2.88
2023-05-11T12:28:09.290Z,4.75
2023-05-11T12:29:13.161Z,3.60
2023-05-11T12:30:23.743Z,2.75
2023-05-11T12:31:27.291Z,4.00
2023-05-11T12:32:31.880Z,4.03
2023-05-11T12:33:45.883Z,3.90
2023-05-11T12:34:59.555Z,6.43
2023-05-11T12:36:04.318Z,3.07
2023-05-11T12:37:08.693Z,5.55
2023-05-11T12:38:12.145Z,3.30
2023-05-11T12:39:20.290Z,3.78
2023-05-11T12:40:26.486Z,4.53
2023-05-11T12:41:34.526Z,4.88
2023-05-11T12:42:41.060Z,2.60
2023-05-11T12:43:46.068Z,6.05
2023-05-11T12:44:50.966Z,3.42
2023-05-11T12:45:53.809Z,2.55
2023-05-11T12:46:57.283Z,4.80
2023-05-11T12:48:00.864Z,3.28
2023-05-11T12:49:08.367Z,3.22
2023-05-11T12:50:12.952Z,3.58
2023-05-11T12:51:47.130Z,3.42
2023-05-11T12:52:51.111Z,2.55
2023-05-11T12:53:53.706Z,4.00
2023-05-11T12:55:00.336Z,4.78
2023-05-11T12:56:04.652Z,2.88
2023-05-11T12:57:24.745Z,2.75
2023-05-11T12:58:37.202Z,4.00
2023-05-11T12:59:41.290Z,5.63
2023-05-11T13:00:55.451Z,2.63
2023-05-11T13:02:09.976Z,4.85
2023-05-11T13:03:13.671Z,5.75
2023-05-11T13:04:17.170Z,4.47
2023-05-11T13:05:26.138Z,2.72
2023-05-11T13:06:31.581Z,5.13
2023-05-11T13:07:34.844Z,4.50
2023-05-11T13:08:39.714Z,4.30
2023-05-11T13:09:45.327Z,4.23
2023-05-11T13:11:03.347Z,3.15
2023-05-11T13:12:19.908Z,3.15
2023-05-11T13:13:39.434Z,3.70
2023-05-11T13:14:42.666Z,4.90
2023-05-11T13:15:53.197Z,2.58
2023-05-11T13:16:55.522Z,3.58
2023-05-11T13:18:01.398Z,4.13
2023-05-11T13:19:08.425Z,3.83
2023-05-11T13:20:29.977Z,2.72
2023-05-11T13:21:36.960Z,2.93
2023-05-11T13:22:40.550Z,2.15
2023-05-11T13:23:56.678Z,4.28
2023-05-11T13:25:05.945Z,1.80
2023-05-11T13:26:10.248Z,1.95
2023-05-11T13:27:15.472Z,4.43
2023-05-11T13:28:22.066Z,8.27
2023-05-11T13:29:26.462Z,3.17
2023-05-11T13:30:28.716Z,2.22
2023-05-11T13:31:33.209Z,2.75
2023-05-11T13:32:37.240Z,3.63
2023-05-11T13:33:39.410Z,3.13
2023-05-11T13:34:42.536Z,2.10
2023-05-11T13:35:46.818Z,2.70
2023-05-11T13:36:52.918Z,2.70
2023-05-11T13:37:57.833Z,2.70
2023-05-11T13:39:03.158Z,4.38
2023-05-11T13:40:08.869Z,4.50
2023-05-11T13:41:12.486Z,2.28
2023-05-11T13:42:18.727Z,4.40
2023-05-11T13:43:21.382Z,2.93
2023-05-11T13:44:24.799Z,5.85
2023-05-11T13:45:32.193Z,3.33
2023-05-11T13:46:35.656Z,4.50
2023-05-11T13:47:45.383Z,5.20
2023-05-11T13:48:49.422Z,3.00
2023-05-11T13:49:55.169Z,5.43
2023-05-11T13:50:57.502Z,4.72
2023-05-11T13:52:02.512Z,3.13
2023-05-11T13:53:05.778Z,1.70
2023-05-11T13:54:08.544Z,5.10
2023-05-11T13:55:11.736Z,3.72
2023-05-11T13:56:14.560Z,5.85
2023-05-11T13:57:21.818Z,4.20
2023-05-11T13:58:26.093Z,4.60
2023-05-11T13:59:29.666Z,4.18
2023-05-11T14:00:35.227Z,4.55
2023-05-11T14:01:38.920Z,3.97
2023-05-11T14:02:49.781Z,5.30
2023-05-11T14:03:55.299Z,2.33
2023-05-11T14:04:59.283Z,4.97
2023-05-11T14:06:01.664Z,4.50
2023-05-11T14:07:07.969Z,4.35
2023-05-11T14:08:11.585Z,6.20
2023-05-11T14:09:17.562Z,6.07
2023-05-11T14:10:21.093Z,5.40
2023-05-11T14:11:23.598Z,2.50
2023-05-11T14:12:28.521Z,3.22
2023-05-11T14:13:30.939Z,1.88
2023-05-11T14:14:34.467Z,3.05
2023-05-11T14:15:38.478Z,5.00
2023-05-11T14:16:42.045Z,4.22
2023-05-11T14:17:44.293Z,3.90
2023-05-11T14:18:50.846Z,6.18
2023-05-11T14:19:55.504Z,5.57
2023-05-11T14:20:59.669Z,3.90
2023-05-11T14:22:07.149Z,5.13
2023-05-11T14:23:09.989Z,7.85
2023-05-11T14:24:22.735Z,3.97
2023-05-11T14:25:26.173Z,5.18
2023-05-11T14:26:30.868Z,5.43
2023-05-11T14:27:37.500Z,4.38
2023-05-11T14:28:47.615Z,5.82
2023-05-11T14:29:52.282Z,4.50
2023-05-11T14:30:57.660Z,4.70
2023-05-11T14:32:09.694Z,4.72